• Join FlightAware (Why Join?)
  • Login
  • US Flag 
01:13PM EDT


 

Airport Tracker/Info


-or-


 

Live Flight TrackerFlight Track Log ✈ ASH2608 ✈ 21-Jun-2013 ✈ KBNA - KCLT

Flight Track Log - Related Links

Times and Time Zones

All times are in EDT time to prevent confusion due to time zone crossing. See the ASH2608 flight status page for this flight to view local times or setup timezone preferences in your user account.

Time Position Orientation Groundspeed Altitude Reporting Facility
EDT Latitude Longitude Course Direction KTS MPH feet Rate Location/Type
02:01PM 36.1167 -86.6833 90° East 155 178 1,200  Level Nashville TRACON
02:02PM 36.0667 -86.6500 152° Southeast 202 232 3,500 1,860 Climbing Nashville TRACON
02:03PM 36.0500 -86.6167 122° Southeast 231 266 4,600 2,100 Climbing Nashville TRACON
02:04PM 36.0674 -86.2568 100° East  Level Estimated
02:04PM 36.0333 -86.5333 104° East 280 322 6,700  Level Nashville TRACON
02:05PM 36.0481 -86.1165 90° East  Level Estimated
02:05PM 36.0397 -86.4194 86° East 334 384 10,000  Level Memphis Center
02:06PM 36.0285 -85.9763 90° East  Level Estimated
02:06PM 36.0511 -86.3186 82° East 298 343 12,700  Level Memphis Center
02:07PM 36.0089 -85.8361 90° East  Level Estimated
02:07PM 36.0622 -86.2153 82° East 298 343 15,300  Level Memphis Center
02:08PM 36.1047 -86.1183 61° Northeast 298 343 16,600 1,500 Climbing Memphis Center
02:09PM 36.1556 -86.0128 59° Northeast 342 394 18,300 1,800 Climbing Memphis Center
02:10PM 36.2100 -85.9069 57° Northeast 357 411 20,200 1,860 Climbing Memphis Center
02:11PM 36.2456 -85.8328 59° Northeast 372 428 21,400 1,620 Climbing Indianapolis Center
02:12PM 36.3056 -85.7222 56° Northeast 376 433 23,000 1,980 Climbing Indianapolis Center
02:13PM 36.3656 -85.6131 56° Northeast 381 438 25,600 2,040 Climbing Indianapolis Center
02:14PM 36.4217 -85.5089 56° Northeast 364 419 27,300 1,500 Climbing Indianapolis Center
02:15PM 36.4806 -85.4019 56° Northeast 371 427 28,700 780 Climbing Indianapolis Center
02:16PM 36.5511 -85.2661 57° Northeast 391 450 29,000 120 Climbing Indianapolis Center
02:17PM 36.5967 -85.1389 66° East 398 458 29,000  Level Indianapolis Center
02:18PM 36.6278 -84.9978 75° East 416 479 29,000  Level Indianapolis Center
02:19PM 36.5864 -84.8525 109° East 441 507 29,000  Level Indianapolis Center
02:20PM 36.5258 -84.7208 120° Southeast 449 517 29,000  Level Indianapolis Center
02:21PM 36.4378 -84.6036 133° Southeast 458 527 29,000  Level Indianapolis Center
02:22PM 36.3517 -84.4886 133° Southeast 453 521 29,000  Level Indianapolis Center
02:23PM 36.2667 -84.3753 133° Southeast 447 514 29,000  Level Indianapolis Center
02:24PM 36.1658 -84.2403 133° Southeast 443 510 29,000  Level Indianapolis Center
02:25PM 36.0817 -84.1286 133° Southeast 441 507 29,000  Level Indianapolis Center
02:26PM 35.9975 -84.0178 133° Southeast 440 506 29,000  Level Indianapolis Center
02:27PM 35.9147 -83.9064 133° Southeast 439 505 29,000  Level Indianapolis Center
02:28PM 35.9031 -83.7525 95° East 429 494 29,000  Level Indianapolis Center
02:29PM 35.8992 -83.6031 92° East 435 501 29,000  Level Indianapolis Center
02:31PM 35.8967 -83.4539 91° East 435 501 29,000  Level Indianapolis Center
02:32PM 35.8911 -83.2825 92° East 427 491 29,000  Level Atlanta Center
02:33PM 35.8881 -83.1261 91° East 445 512 29,000 -240 Level Atlanta Center
02:34PM 35.8742 -82.9753 96° East 450 518 28,600 -720 Descending Atlanta Center
02:35PM 35.8458 -82.8322 104° East 445 512 27,600 -1,020 Descending Atlanta Center
02:36PM 35.8192 -82.6867 103° East 440 506 26,600 -1,020 Descending Atlanta Center
02:37PM 35.7903 -82.5283 103° East 435 501 25,600 -1,320 Descending Atlanta Center
02:38PM 35.7636 -82.3931 104° East 435 501 24,000 -2,100 Descending Atlanta Center
02:39PM 35.7364 -82.2506 103° East 435 501 21,500 -2,640 Descending Atlanta Center
02:40PM 35.7364 -82.1047 90° East 402 463 18,800 -2,040 Descending Atlanta Center
02:41PM 35.7531 -81.9789 81° East 381 438 17,500 -1,680 Descending Atlanta Center
02:42PM 35.7636 -81.8686 83° East 343 395 15,500 -1,860 Descending Atlanta Center
02:43PM 35.7289 -81.7800 116° Southeast 310 357 13,800 -960 Descending Atlanta Center
02:45PM 35.6049 -81.5781 126° Southeast  Level Estimated
02:45PM 35.5761 -81.5442 126° Southeast 284 327 12,000  Level Atlanta Center
02:46PM 35.5286 -81.4689 128° Southeast 276 318 12,000 -480 Level Atlanta Center
02:47PM 35.4792 -81.3942 129° Southeast 284 327 11,100 -840 Descending Atlanta Center
02:48PM 35.4317 -81.3217 129° Southeast 273 314 10,300 -540 Descending Atlanta Center
02:50PM 35.3842 -81.2519 130° Southeast 230 265 10,000 -180 Descending Atlanta Center
02:51PM 35.3431 -81.1872 128° Southeast 231 266 10,000  Level Atlanta Center
02:52PM 35.2978 -81.1300 134° Southeast 234 269 10,000 -420 Level Atlanta Center
02:53PM 35.2464 -81.0736 138° Southeast 236 272 9,200 -900 Descending Atlanta Center
02:54PM 35.1858 -81.0681 176° South 246 283 8,300 -1,020 Descending Atlanta Center
02:55PM 35.1208 -81.0628 176° South 240 276 7,300 -1,020 Descending Atlanta Center
02:56PM 35.0542 -81.0575 176° South 240 276 6,300 -660 Descending Atlanta Center
02:57PM 34.9767 -81.0503 176° South 240 276 6,000 -480 Descending Atlanta Center
02:58PM 34.9422 -81.0058 133° Southeast 215 247 5,400 -600 Descending Atlanta Center
02:59PM 34.9764 -80.9589 48° Northeast 188 216 4,800 -660 Descending Atlanta Center
03:00PM 35.0328 -80.9517 North 195 224 4,000 -840 Descending Atlanta Center